sensor_id;sensor_type;location;lat;lon;timestamp;temperature;humidity
4505;DHT22;2265;48.794;9.520;2023-05-21T00:00:36;16.50;98.00
4505;DHT22;2265;48.794;9.520;2023-05-21T00:03:03;16.50;98.00
4505;DHT22;2265;48.794;9.520;2023-05-21T00:05:38;16.50;98.00
4505;DHT22;2265;48.794;9.520;2023-05-21T00:08:06;16.40;98.00
4505;DHT22;2265;48.794;9.520;2023-05-21T00:10:34;16.40;98.00
4505;DHT22;2265;48.794;9.520;2023-05-21T00:13:01;16.40;98.00
4505;DHT22;2265;48.794;9.520;2023-05-21T00:15:28;16.30;98.00
4505;DHT22;2265;48.794;9.520;2023-05-21T00:17:55;16.20;98.00
4505;DHT22;2265;48.794;9.520;2023-05-21T00:20:23;16.00;98.00
4505;DHT22;2265;48.794;9.520;2023-05-21T00:22:50;15.90;98.00
4505;DHT22;2265;48.794;9.520;2023-05-21T00:25:17;15.80;98.00
4505;DHT22;2265;48.794;9.520;2023-05-21T00:27:45;15.70;98.00
4505;DHT22;2265;48.794;9.520;2023-05-21T00:30:12;15.80;98.00
4505;DHT22;2265;48.794;9.520;2023-05-21T00:32:40;15.80;98.00
4505;DHT22;2265;48.794;9.520;2023-05-21T00:35:08;15.70;98.00
4505;DHT22;2265;48.794;9.520;2023-05-21T00:37:35;15.60;98.00
4505;DHT22;2265;48.794;9.520;2023-05-21T00:40:03;15.50;98.00
4505;DHT22;2265;48.794;9.520;2023-05-21T00:42:34;15.60;98.00
4505;DHT22;2265;48.794;9.520;2023-05-21T00:45:07;15.70;98.00
4505;DHT22;2265;48.794;9.520;2023-05-21T00:47:34;15.70;98.00
4505;DHT22;2265;48.794;9.520;2023-05-21T00:50:02;15.60;98.00
4505;DHT22;2265;48.794;9.520;2023-05-21T00:52:31;15.70;98.00
4505;DHT22;2265;48.794;9.520;2023-05-21T00:54:58;15.80;98.00
4505;DHT22;2265;48.794;9.520;2023-05-21T00:57:25;15.70;98.00
4505;DHT22;2265;48.794;9.520;2023-05-21T00:59:53;15.50;98.00
4505;DHT22;2265;48.794;9.520;2023-05-21T01:02:21;15.50;98.00
4505;DHT22;2265;48.794;9.520;2023-05-21T01:04:52;15.60;98.00
4505;DHT22;2265;48.794;9.520;2023-05-21T01:07:19;15.80;98.00
4505;DHT22;2265;48.794;9.520;2023-05-21T01:09:48;15.70;98.00
4505;DHT22;2265;48.794;9.520;2023-05-21T01:12:16;15.60;98.00
4505;DHT22;2265;48.794;9.520;2023-05-21T01:14:44;15.50;98.00
4505;DHT22;2265;48.794;9.520;2023-05-21T01:17:12;15.50;98.00
4505;DHT22;2265;48.794;9.520;2023-05-21T01:19:42;15.60;98.00
4505;DHT22;2265;48.794;9.520;2023-05-21T01:22:11;15.60;98.00
4505;DHT22;2265;48.794;9.520;2023-05-21T01:24:44;15.60;98.00
4505;DHT22;2265;48.794;9.520;2023-05-21T01:27:12;15.50;98.00
4505;DHT22;2265;48.794;9.520;2023-05-21T01:29:39;15.50;98.00
4505;DHT22;2265;48.794;9.520;2023-05-21T01:32:13;15.50;98.00
4505;DHT22;2265;48.794;9.520;2023-05-21T01:34:47;15.50;98.00
4505;DHT22;2265;48.794;9.520;2023-05-21T01:37:24;15.50;98.00
4505;DHT22;2265;48.794;9.520;2023-05-21T01:39:58;15.50;98.00
4505;DHT22;2265;48.794;9.520;2023-05-21T01:42:28;15.40;98.00
4505;DHT22;2265;48.794;9.520;2023-05-21T01:44:56;15.30;98.00
4505;DHT22;2265;48.794;9.520;2023-05-21T01:47:26;15.40;98.00
4505;DHT22;2265;48.794;9.520;2023-05-21T01:49:56;15.40;98.00
4505;DHT22;2265;48.794;9.520;2023-05-21T01:52:23;15.40;98.00
4505;DHT22;2265;48.794;9.520;2023-05-21T01:54:50;15.40;98.00
4505;DHT22;2265;48.794;9.520;2023-05-21T01:57:20;15.30;98.00
4505;DHT22;2265;48.794;9.520;2023-05-21T01:59:47;15.20;98.00
4505;DHT22;2265;48.794;9.520;2023-05-21T02:02:14;15.30;98.00
4505;DHT22;2265;48.794;9.520;2023-05-21T02:04:41;15.20;98.00
4505;DHT22;2265;48.794;9.520;2023-05-21T02:07:11;15.30;98.00
4505;DHT22;2265;48.794;9.520;2023-05-21T02:09:39;15.30;98.00
4505;DHT22;2265;48.794;9.520;2023-05-21T02:12:07;15.40;98.00
4505;DHT22;2265;48.794;9.520;2023-05-21T02:14:35;15.40;98.00
4505;DHT22;2265;48.794;9.520;2023-05-21T02:17:03;15.30;98.00
4505;DHT22;2265;48.794;9.520;2023-05-21T02:19:30;15.40;98.00
4505;DHT22;2265;48.794;9.520;2023-05-21T02:21:57;15.40;98.00
4505;DHT22;2265;48.794;9.520;2023-05-21T02:24:24;15.30;98.00
4505;DHT22;2265;48.794;9.520;2023-05-21T02:26:51;15.20;98.00
4505;DHT22;2265;48.794;9.520;2023-05-21T02:29:18;15.20;98.00
4505;DHT22;2265;48.794;9.520;2023-05-21T02:31:46;15.30;98.00
4505;DHT22;2265;48.794;9.520;2023-05-21T02:34:15;15.40;98.00
4505;DHT22;2265;48.794;9.520;2023-05-21T02:36:45;15.40;98.00
4505;DHT22;2265;48.794;9.520;2023-05-21T02:39:17;15.40;98.00
4505;DHT22;2265;48.794;9.520;2023-05-21T02:41:44;15.30;98.00
4505;DHT22;2265;48.794;9.520;2023-05-21T02:44:11;15.20;98.00
4505;DHT22;2265;48.794;9.520;2023-05-21T02:46:40;15.00;98.00
4505;DHT22;2265;48.794;9.520;2023-05-21T02:49:09;14.90;98.00
4505;DHT22;2265;48.794;9.520;2023-05-21T02:51:36;14.90;98.00
4505;DHT22;2265;48.794;9.520;2023-05-21T02:54:03;15.00;98.00
4505;DHT22;2265;48.794;9.520;2023-05-21T02:56:32;14.90;98.00
4505;DHT22;2265;48.794;9.520;2023-05-21T02:58:59;14.80;98.00
4505;DHT22;2265;48.794;9.520;2023-05-21T03:01:26;14.70;98.00
4505;DHT22;2265;48.794;9.520;2023-05-21T03:03:53;14.70;98.00
4505;DHT22;2265;48.794;9.520;2023-05-21T03:06:21;14.80;98.00
4505;DHT22;2265;48.794;9.520;2023-05-21T03:08:48;14.70;98.00
4505;DHT22;2265;48.794;9.520;2023-05-21T03:11:17;14.60;98.00
4505;DHT22;2265;48.794;9.520;2023-05-21T03:13:44;14.50;98.00
4505;DHT22;2265;48.794;9.520;2023-05-21T03:16:11;14.50;98.00
4505;DHT22;2265;48.794;9.520;2023-05-21T03:18:38;14.40;98.00
4505;DHT22;2265;48.794;9.520;2023-05-21T03:21:05;14.40;98.00
4505;DHT22;2265;48.794;9.520;2023-05-21T03:23:34;14.40;98.00
4505;DHT22;2265;48.794;9.520;2023-05-21T03:26:01;14.30;98.00
4505;DHT22;2265;48.794;9.520;2023-05-21T03:28:30;14.40;98.00
4505;DHT22;2265;48.794;9.520;2023-05-21T03:30:57;14.40;98.00
4505;DHT22;2265;48.794;9.520;2023-05-21T03:33:27;14.40;98.00
4505;DHT22;2265;48.794;9.520;2023-05-21T03:35:54;14.40;98.00
4505;DHT22;2265;48.794;9.520;2023-05-21T03:38:21;14.40;98.00
4505;DHT22;2265;48.794;9.520;2023-05-21T03:40:49;14.30;98.00
4505;DHT22;2265;48.794;9.520;2023-05-21T03:43:17;14.30;98.00
4505;DHT22;2265;48.794;9.520;2023-05-21T03:45:44;14.40;98.00
4505;DHT22;2265;48.794;9.520;2023-05-21T03:48:11;14.20;98.00
4505;DHT22;2265;48.794;9.520;2023-05-21T03:50:38;14.10;98.00
4505;DHT22;2265;48.794;9.520;2023-05-21T03:53:06;14.10;98.00
4505;DHT22;2265;48.794;9.520;2023-05-21T03:55:35;14.30;98.00
4505;DHT22;2265;48.794;9.520;2023-05-21T03:58:03;14.40;98.00
4505;DHT22;2265;48.794;9.520;2023-05-21T04:00:30;14.50;98.00
4505;DHT22;2265;48.794;9.520;2023-05-21T04:02:59;14.40;98.00
4505;DHT22;2265;48.794;9.520;2023-05-21T04:05:27;14.10;98.00
4505;DHT22;2265;48.794;9.520;2023-05-21T04:07:54;14.00;98.00
4505;DHT22;2265;48.794;9.520;2023-05-21T04:10:25;14.20;98.00
4505;DHT22;2265;48.794;9.520;2023-05-21T04:12:53;14.20;98.00
4505;DHT22;2265;48.794;9.520;2023-05-21T04:15:23;14.30;98.00
4505;DHT22;2265;48.794;9.520;2023-05-21T04:17:50;14.30;98.00
4505;DHT22;2265;48.794;9.520;2023-05-21T04:20:17;14.20;98.00
4505;DHT22;2265;48.794;9.520;2023-05-21T04:22:44;14.30;98.00
4505;DHT22;2265;48.794;9.520;2023-05-21T04:25:11;14.30;98.00
4505;DHT22;2265;48.794;9.520;2023-05-21T04:27:39;14.40;98.00
4505;DHT22;2265;48.794;9.520;2023-05-21T04:30:07;14.40;98.00
4505;DHT22;2265;48.794;9.520;2023-05-21T04:32:37;14.30;98.00
4505;DHT22;2265;48.794;9.520;2023-05-21T04:35:04;14.50;98.00
4505;DHT22;2265;48.794;9.520;2023-05-21T04:37:31;14.60;98.00
4505;DHT22;2265;48.794;9.520;2023-05-21T04:39:59;14.60;98.00
4505;DHT22;2265;48.794;9.520;2023-05-21T04:42:27;14.60;98.00
4505;DHT22;2265;48.794;9.520;2023-05-21T04:44:55;14.70;98.00
4505;DHT22;2265;48.794;9.520;2023-05-21T04:47:25;14.80;98.00
4505;DHT22;2265;48.794;9.520;2023-05-21T04:49:56;14.70;98.00
4505;DHT22;2265;48.794;9.520;2023-05-21T04:52:24;14.70;98.00
4505;DHT22;2265;48.794;9.520;2023-05-21T04:54:51;14.70;98.00
4505;DHT22;2265;48.794;9.520;2023-05-21T04:57:18;14.70;98.00
4505;DHT22;2265;48.794;9.520;2023-05-21T04:59:46;14.80;98.00
4505;DHT22;2265;48.794;9.520;2023-05-21T05:02:13;15.00;98.00
4505;DHT22;2265;48.794;9.520;2023-05-21T05:04:40;15.10;98.00
4505;DHT22;2265;48.794;9.520;2023-05-21T05:07:09;15.10;98.00
4505;DHT22;2265;48.794;9.520;2023-05-21T05:09:36;15.10;98.00
4505;DHT22;2265;48.794;9.520;2023-05-21T05:12:04;15.20;98.00
4505;DHT22;2265;48.794;9.520;2023-05-21T05:14:31;15.20;98.00
4505;DHT22;2265;48.794;9.520;2023-05-21T05:16:58;15.40;98.00
4505;DHT22;2265;48.794;9.520;2023-05-21T05:19:26;15.40;98.00
4505;DHT22;2265;48.794;9.520;2023-05-21T05:21:53;15.40;98.00
4505;DHT22;2265;48.794;9.520;2023-05-21T05:24:22;15.40;98.00
4505;DHT22;2265;48.794;9.520;2023-05-21T05:26:49;15.40;98.00
4505;DHT22;2265;48.794;9.520;2023-05-21T05:29:16;15.50;98.00
4505;DHT22;2265;48.794;9.520;2023-05-21T05:31:43;15.60;98.00
4505;DHT22;2265;48.794;9.520;2023-05-21T05:34:13;15.70;98.00
4505;DHT22;2265;48.794;9.520;2023-05-21T05:36:40;15.80;98.00
4505;DHT22;2265;48.794;9.520;2023-05-21T05:39:07;15.80;98.00
4505;DHT22;2265;48.794;9.520;2023-05-21T05:41:36;15.90;98.00
4505;DHT22;2265;48.794;9.520;2023-05-21T05:44:03;15.90;98.00
4505;DHT22;2265;48.794;9.520;2023-05-21T05:46:30;15.90;98.00
4505;DHT22;2265;48.794;9.520;2023-05-21T05:48:57;16.00;98.00
4505;DHT22;2265;48.794;9.520;2023-05-21T05:51:26;16.00;98.00
4505;DHT22;2265;48.794;9.520;2023-05-21T05:53:53;16.10;98.00
4505;DHT22;2265;48.794;9.520;2023-05-21T05:56:20;16.10;98.00
4505;DHT22;2265;48.794;9.520;2023-05-21T05:58:48;16.20;98.00
4505;DHT22;2265;48.794;9.520;2023-05-21T06:01:16;16.40;98.00
4505;DHT22;2265;48.794;9.520;2023-05-21T06:03:43;16.50;98.00
4505;DHT22;2265;48.794;9.520;2023-05-21T06:06:10;16.60;98.00
4505;DHT22;2265;48.794;9.520;2023-05-21T06:08:37;16.50;98.00
4505;DHT22;2265;48.794;9.520;2023-05-21T06:11:05;16.50;98.00
4505;DHT22;2265;48.794;9.520;2023-05-21T06:13:41;16.50;98.00
4505;DHT22;2265;48.794;9.520;2023-05-21T06:16:10;16.60;98.00
4505;DHT22;2265;48.794;9.520;2023-05-21T06:18:37;16.60;98.00
4505;DHT22;2265;48.794;9.520;2023-05-21T06:21:04;16.80;98.00
4505;DHT22;2265;48.794;9.520;2023-05-21T06:23:31;16.90;98.00
4505;DHT22;2265;48.794;9.520;2023-05-21T06:26:00;17.00;98.00
4505;DHT22;2265;48.794;9.520;2023-05-21T06:28:27;17.10;98.00
4505;DHT22;2265;48.794;9.520;2023-05-21T06:30:58;17.10;98.00
4505;DHT22;2265;48.794;9.520;2023-05-21T06:33:26;17.10;98.00
4505;DHT22;2265;48.794;9.520;2023-05-21T06:35:53;17.10;98.00
4505;DHT22;2265;48.794;9.520;2023-05-21T06:38:20;17.10;98.00
4505;DHT22;2265;48.794;9.520;2023-05-21T06:40:47;17.20;98.00
4505;DHT22;2265;48.794;9.520;2023-05-21T06:43:14;17.30;98.00
4505;DHT22;2265;48.794;9.520;2023-05-21T06:45:41;17.40;98.00
4505;DHT22;2265;48.794;9.520;2023-05-21T06:48:08;17.50;98.00
4505;DHT22;2265;48.794;9.520;2023-05-21T06:50:38;17.50;98.00
4505;DHT22;2265;48.794;9.520;2023-05-21T06:53:05;17.50;98.00
4505;DHT22;2265;48.794;9.520;2023-05-21T06:55:32;17.50;98.00
4505;DHT22;2265;48.794;9.520;2023-05-21T06:57:59;17.60;98.00
4505;DHT22;2265;48.794;9.520;2023-05-21T07:00:26;17.70;98.00
4505;DHT22;2265;48.794;9.520;2023-05-21T07:02:53;17.70;98.00
4505;DHT22;2265;48.794;9.520;2023-05-21T07:05:20;17.60;98.00
4505;DHT22;2265;48.794;9.520;2023-05-21T07:07:49;17.70;98.00
4505;DHT22;2265;48.794;9.520;2023-05-21T07:10:16;17.80;98.00
4505;DHT22;2265;48.794;9.520;2023-05-21T07:12:43;17.90;98.00
4505;DHT22;2265;48.794;9.520;2023-05-21T07:15:11;17.90;98.00
4505;DHT22;2265;48.794;9.520;2023-05-21T07:17:38;18.00;98.00
4505;DHT22;2265;48.794;9.520;2023-05-21T07:20:06;18.00;98.00
4505;DHT22;2265;48.794;9.520;2023-05-21T07:22:36;18.20;98.00
4505;DHT22;2265;48.794;9.520;2023-05-21T07:25:06;18.20;98.00
4505;DHT22;2265;48.794;9.520;2023-05-21T07:27:35;18.30;98.00
4505;DHT22;2265;48.794;9.520;2023-05-21T07:30:03;18.30;98.00
4505;DHT22;2265;48.794;9.520;2023-05-21T07:32:33;18.40;98.00
4505;DHT22;2265;48.794;9.520;2023-05-21T07:35:00;18.60;98.00
4505;DHT22;2265;48.794;9.520;2023-05-21T07:37:27;18.70;98.00
4505;DHT22;2265;48.794;9.520;2023-05-21T07:39:56;18.90;98.00
4505;DHT22;2265;48.794;9.520;2023-05-21T07:42:25;19.00;98.00
4505;DHT22;2265;48.794;9.520;2023-05-21T07:44:52;19.20;98.00
4505;DHT22;2265;48.794;9.520;2023-05-21T07:47:19;19.30;98.00
4505;DHT22;2265;48.794;9.520;2023-05-21T07:49:48;19.50;98.00
4505;DHT22;2265;48.794;9.520;2023-05-21T07:52:16;19.60;98.00
4505;DHT22;2265;48.794;9.520;2023-05-21T07:54:43;19.70;98.00
4505;DHT22;2265;48.794;9.520;2023-05-21T07:57:10;19.80;98.00
4505;DHT22;2265;48.794;9.520;2023-05-21T07:59:38;19.90;98.00
4505;DHT22;2265;48.794;9.520;2023-05-21T08:02:05;20.10;98.00
4505;DHT22;2265;48.794;9.520;2023-05-21T08:04:33;20.10;98.00
4505;DHT22;2265;48.794;9.520;2023-05-21T08:07:01;20.10;98.00
4505;DHT22;2265;48.794;9.520;2023-05-21T08:09:28;20.20;98.00
4505;DHT22;2265;48.794;9.520;2023-05-21T08:11:56;20.40;98.00
4505;DHT22;2265;48.794;9.520;2023-05-21T08:14:23;20.40;98.00
4505;DHT22;2265;48.794;9.520;2023-05-21T08:16:52;20.60;98.00
4505;DHT22;2265;48.794;9.520;2023-05-21T08:19:19;20.80;98.00
4505;DHT22;2265;48.794;9.520;2023-05-21T08:21:46;20.90;98.00
4505;DHT22;2265;48.794;9.520;2023-05-21T08:24:13;21.10;98.00
4505;DHT22;2265;48.794;9.520;2023-05-21T08:26:42;21.10;98.00
4505;DHT22;2265;48.794;9.520;2023-05-21T08:29:09;21.10;98.00
4505;DHT22;2265;48.794;9.520;2023-05-21T08:31:36;21.20;98.00
4505;DHT22;2265;48.794;9.520;2023-05-21T08:34:06;21.30;98.00
4505;DHT22;2265;48.794;9.520;2023-05-21T08:36:33;21.40;98.00
4505;DHT22;2265;48.794;9.520;2023-05-21T08:39:00;21.50;98.00
4505;DHT22;2265;48.794;9.520;2023-05-21T08:41:30;21.60;98.00
4505;DHT22;2265;48.794;9.520;2023-05-21T08:44:00;21.70;98.00
4505;DHT22;2265;48.794;9.520;2023-05-21T08:46:32;21.90;98.00
4505;DHT22;2265;48.794;9.520;2023-05-21T08:49:01;22.00;98.00
4505;DHT22;2265;48.794;9.520;2023-05-21T08:51:30;22.10;98.00
4505;DHT22;2265;48.794;9.520;2023-05-21T08:53:59;22.30;98.00
4505;DHT22;2265;48.794;9.520;2023-05-21T08:56:27;22.30;98.00
4505;DHT22;2265;48.794;9.520;2023-05-21T08:58:57;22.40;98.00
4505;DHT22;2265;48.794;9.520;2023-05-21T09:01:24;22.50;98.00
4505;DHT22;2265;48.794;9.520;2023-05-21T09:03:52;22.50;98.00
4505;DHT22;2265;48.794;9.520;2023-05-21T09:06:24;22.70;98.00
4505;DHT22;2265;48.794;9.520;2023-05-21T09:09:01;22.80;98.00
4505;DHT22;2265;48.794;9.520;2023-05-21T09:11:30;23.00;98.00
4505;DHT22;2265;48.794;9.520;2023-05-21T09:13:58;23.10;98.00
4505;DHT22;2265;48.794;9.520;2023-05-21T09:16:26;23.10;98.00
4505;DHT22;2265;48.794;9.520;2023-05-21T09:18:53;23.20;98.00
4505;DHT22;2265;48.794;9.520;2023-05-21T09:21:24;23.20;98.00
4505;DHT22;2265;48.794;9.520;2023-05-21T09:23:55;23.20;98.00
4505;DHT22;2265;48.794;9.520;2023-05-21T09:26:23;23.20;98.00
4505;DHT22;2265;48.794;9.520;2023-05-21T09:28:51;23.30;98.00
4505;DHT22;2265;48.794;9.520;2023-05-21T09:31:23;23.20;98.00
4505;DHT22;2265;48.794;9.520;2023-05-21T09:33:51;23.20;98.00
4505;DHT22;2265;48.794;9.520;2023-05-21T09:36:20;23.40;98.00
4505;DHT22;2265;48.794;9.520;2023-05-21T09:38:48;23.40;98.00
4505;DHT22;2265;48.794;9.520;2023-05-21T09:41:18;23.50;98.00
4505;DHT22;2265;48.794;9.520;2023-05-21T09:43:46;23.60;98.00
4505;DHT22;2265;48.794;9.520;2023-05-21T09:46:13;23.60;98.00
4505;DHT22;2265;48.794;9.520;2023-05-21T09:48:41;23.70;98.00
4505;DHT22;2265;48.794;9.520;2023-05-21T09:51:09;23.70;98.00
4505;DHT22;2265;48.794;9.520;2023-05-21T09:53:53;23.60;98.00
4505;DHT22;2265;48.794;9.520;2023-05-21T09:56:24;23.80;98.00
4505;DHT22;2265;48.794;9.520;2023-05-21T09:58:53;23.90;98.00
4505;DHT22;2265;48.794;9.520;2023-05-21T10:01:22;23.90;98.00
4505;DHT22;2265;48.794;9.520;2023-05-21T10:03:53;23.90;98.00
4505;DHT22;2265;48.794;9.520;2023-05-21T10:06:21;23.80;98.00
4505;DHT22;2265;48.794;9.520;2023-05-21T10:08:52;23.70;98.00
4505;DHT22;2265;48.794;9.520;2023-05-21T10:11:22;23.70;98.00
4505;DHT22;2265;48.794;9.520;2023-05-21T10:13:56;23.80;98.00
4505;DHT22;2265;48.794;9.520;2023-05-21T10:16:23;23.90;96.80
4505;DHT22;2265;48.794;9.520;2023-05-21T10:18:52;24.20;97.20
4505;DHT22;2265;48.794;9.520;2023-05-21T10:21:21;24.50;97.00
4505;DHT22;2265;48.794;9.520;2023-05-21T10:23:49;24.70;96.30
4505;DHT22;2265;48.794;9.520;2023-05-21T10:26:18;25.00;92.80
4505;DHT22;2265;48.794;9.520;2023-05-21T10:28:48;25.20;95.00
4505;DHT22;2265;48.794;9.520;2023-05-21T10:31:15;25.40;94.80
4505;DHT22;2265;48.794;9.520;2023-05-21T10:33:43;25.50;92.30
4505;DHT22;2265;48.794;9.520;2023-05-21T10:36:10;25.60;91.10
4505;DHT22;2265;48.794;9.520;2023-05-21T10:38:38;25.90;92.70
4505;DHT22;2265;48.794;9.520;2023-05-21T10:41:06;25.80;90.90
4505;DHT22;2265;48.794;9.520;2023-05-21T10:43:43;26.00;93.30
4505;DHT22;2265;48.794;9.520;2023-05-21T10:46:42;26.10;93.20
4505;DHT22;2265;48.794;9.520;2023-05-21T10:52:12;26.00;89.90
4505;DHT22;2265;48.794;9.520;2023-05-21T10:54:59;25.90;90.10
4505;DHT22;2265;48.794;9.520;2023-05-21T10:57:53;26.10;91.70
4505;DHT22;2265;48.794;9.520;2023-05-21T11:00:24;26.10;92.40
4505;DHT22;2265;48.794;9.520;2023-05-21T11:02:54;26.30;89.50
4505;DHT22;2265;48.794;9.520;2023-05-21T11:05:40;26.50;89.60
4505;DHT22;2265;48.794;9.520;2023-05-21T11:08:20;26.80;89.20
4505;DHT22;2265;48.794;9.520;2023-05-21T11:10:51;26.90;88.20
4505;DHT22;2265;48.794;9.520;2023-05-21T11:13:19;27.00;88.80
4505;DHT22;2265;48.794;9.520;2023-05-21T11:16:12;27.20;87.40
4505;DHT22;2265;48.794;9.520;2023-05-21T11:18:59;27.40;86.30
4505;DHT22;2265;48.794;9.520;2023-05-21T11:21:31;27.60;87.90
4505;DHT22;2265;48.794;9.520;2023-05-21T11:24:04;27.80;86.00
4505;DHT22;2265;48.794;9.520;2023-05-21T11:26:58;27.90;86.20
4505;DHT22;2265;48.794;9.520;2023-05-21T11:29:40;27.70;86.40
4505;DHT22;2265;48.794;9.520;2023-05-21T11:32:10;27.80;87.40
4505;DHT22;2265;48.794;9.520;2023-05-21T11:34:40;27.60;86.90
4505;DHT22;2265;48.794;9.520;2023-05-21T11:37:25;27.30;86.90
4505;DHT22;2265;48.794;9.520;2023-05-21T11:39:54;27.20;88.40
4505;DHT22;2265;48.794;9.520;2023-05-21T11:42:29;26.90;88.00
4505;DHT22;2265;48.794;9.520;2023-05-21T11:44:57;26.90;90.10
4505;DHT22;2265;48.794;9.520;2023-05-21T11:47:26;27.20;90.20
4505;DHT22;2265;48.794;9.520;2023-05-21T11:49:57;27.50;92.40
4505;DHT22;2265;48.794;9.520;2023-05-21T11:52:24;27.70;90.60
4505;DHT22;2265;48.794;9.520;2023-05-21T11:54:53;27.80;90.10
4505;DHT22;2265;48.794;9.520;2023-05-21T11:57:24;28.00;88.70
4505;DHT22;2265;48.794;9.520;2023-05-21T11:59:54;28.10;90.20
4505;DHT22;2265;48.794;9.520;2023-05-21T12:02:24;28.20;87.70
4505;DHT22;2265;48.794;9.520;2023-05-21T12:04:52;28.30;87.80
4505;DHT22;2265;48.794;9.520;2023-05-21T12:07:21;28.30;87.00
4505;DHT22;2265;48.794;9.520;2023-05-21T12:09:50;28.20;87.40
4505;DHT22;2265;48.794;9.520;2023-05-21T12:12:19;28.20;89.10
4505;DHT22;2265;48.794;9.520;2023-05-21T12:14:48;28.20;86.10
4505;DHT22;2265;48.794;9.520;2023-05-21T12:17:17;28.20;85.80
4505;DHT22;2265;48.794;9.520;2023-05-21T12:19:47;28.20;87.70
4505;DHT22;2265;48.794;9.520;2023-05-21T12:22:14;28.30;86.70
4505;DHT22;2265;48.794;9.520;2023-05-21T12:24:44;28.30;86.50
4505;DHT22;2265;48.794;9.520;2023-05-21T12:27:12;28.20;85.70
4505;DHT22;2265;48.794;9.520;2023-05-21T12:29:42;28.30;85.50
4505;DHT22;2265;48.794;9.520;2023-05-21T12:32:11;28.30;86.20
4505;DHT22;2265;48.794;9.520;2023-05-21T12:34:42;28.30;83.80
4505;DHT22;2265;48.794;9.520;2023-05-21T12:37:11;28.30;85.70
4505;DHT22;2265;48.794;9.520;2023-05-21T12:39:39;28.10;86.70
4505;DHT22;2265;48.794;9.520;2023-05-21T12:42:08;28.10;87.30
4505;DHT22;2265;48.794;9.520;2023-05-21T12:44:37;28.10;85.20
4505;DHT22;2265;48.794;9.520;2023-05-21T12:47:04;27.90;84.90
4505;DHT22;2265;48.794;9.520;2023-05-21T12:49:35;27.80;84.10
4505;DHT22;2265;48.794;9.520;2023-05-21T12:52:08;27.60;84.20
4505;DHT22;2265;48.794;9.520;2023-05-21T12:54:36;27.50;87.10
4505;DHT22;2265;48.794;9.520;2023-05-21T12:57:14;27.40;86.20
4505;DHT22;2265;48.794;9.520;2023-05-21T12:59:46;27.30;87.80
4505;DHT22;2265;48.794;9.520;2023-05-21T13:02:15;27.30;87.60
4505;DHT22;2265;48.794;9.520;2023-05-21T13:04:42;27.40;86.80
4505;DHT22;2265;48.794;9.520;2023-05-21T13:07:13;27.40;87.60
4505;DHT22;2265;48.794;9.520;2023-05-21T13:09:41;27.40;85.30
4505;DHT22;2265;48.794;9.520;2023-05-21T13:12:10;27.50;85.90
4505;DHT22;2265;48.794;9.520;2023-05-21T13:14:37;27.70;83.70
4505;DHT22;2265;48.794;9.520;2023-05-21T13:17:05;27.80;83.40
4505;DHT22;2265;48.794;9.520;2023-05-21T13:19:32;27.70;85.40
4505;DHT22;2265;48.794;9.520;2023-05-21T13:21:59;27.80;85.90
4505;DHT22;2265;48.794;9.520;2023-05-21T13:24:26;27.90;85.20
4505;DHT22;2265;48.794;9.520;2023-05-21T13:26:53;27.80;84.60
4505;DHT22;2265;48.794;9.520;2023-05-21T13:29:22;27.70;84.30
4505;DHT22;2265;48.794;9.520;2023-05-21T13:31:49;27.60;84.60
4505;DHT22;2265;48.794;9.520;2023-05-21T13:34:16;27.50;84.90
4505;DHT22;2265;48.794;9.520;2023-05-21T13:36:43;27.40;85.30
4505;DHT22;2265;48.794;9.520;2023-05-21T13:39:10;27.30;85.70
4505;DHT22;2265;48.794;9.520;2023-05-21T13:41:37;27.20;86.60
4505;DHT22;2265;48.794;9.520;2023-05-21T13:44:05;27.10;86.60
4505;DHT22;2265;48.794;9.520;2023-05-21T13:46:35;27.10;85.80
4505;DHT22;2265;48.794;9.520;2023-05-21T13:49:04;27.10;85.90
4505;DHT22;2265;48.794;9.520;2023-05-21T13:51:32;27.00;85.40
4505;DHT22;2265;48.794;9.520;2023-05-21T13:53:59;27.00;86.10
4505;DHT22;2265;48.794;9.520;2023-05-21T13:56:26;26.90;85.80
4505;DHT22;2265;48.794;9.520;2023-05-21T13:58:53;26.70;86.90
4505;DHT22;2265;48.794;9.520;2023-05-21T14:01:20;26.80;87.30
4505;DHT22;2265;48.794;9.520;2023-05-21T14:03:49;26.80;88.10
4505;DHT22;2265;48.794;9.520;2023-05-21T14:06:16;26.80;87.30
4505;DHT22;2265;48.794;9.520;2023-05-21T14:08:43;26.70;88.60
4505;DHT22;2265;48.794;9.520;2023-05-21T14:11:10;26.90;88.30
4505;DHT22;2265;48.794;9.520;2023-05-21T14:13:37;27.00;86.90
4505;DHT22;2265;48.794;9.520;2023-05-21T14:16:05;27.00;88.50
4505;DHT22;2265;48.794;9.520;2023-05-21T14:18:32;27.20;88.60
4505;DHT22;2265;48.794;9.520;2023-05-21T14:21:01;27.30;88.90
4505;DHT22;2265;48.794;9.520;2023-05-21T14:23:28;27.30;87.60
4505;DHT22;2265;48.794;9.520;2023-05-21T14:25:55;27.40;88.90
4505;DHT22;2265;48.794;9.520;2023-05-21T14:28:24;27.60;88.50
4505;DHT22;2265;48.794;9.520;2023-05-21T14:30:51;27.70;85.80
4505;DHT22;2265;48.794;9.520;2023-05-21T14:33:18;27.70;88.20
4505;DHT22;2265;48.794;9.520;2023-05-21T14:35:45;27.90;86.70
4505;DHT22;2265;48.794;9.520;2023-05-21T14:38:14;28.10;87.30
4505;DHT22;2265;48.794;9.520;2023-05-21T14:40:41;28.30;87.10
4505;DHT22;2265;48.794;9.520;2023-05-21T14:43:08;28.40;87.30
4505;DHT22;2265;48.794;9.520;2023-05-21T14:45:35;28.50;85.40
4505;DHT22;2265;48.794;9.520;2023-05-21T14:48:02;28.70;88.50
4505;DHT22;2265;48.794;9.520;2023-05-21T14:50:33;28.80;86.60
4505;DHT22;2265;48.794;9.520;2023-05-21T14:53:03;28.90;85.00
4505;DHT22;2265;48.794;9.520;2023-05-21T14:55:32;28.90;84.50
4505;DHT22;2265;48.794;9.520;2023-05-21T14:57:59;28.80;85.20
4505;DHT22;2265;48.794;9.520;2023-05-21T15:00:26;28.70;85.90
4505;DHT22;2265;48.794;9.520;2023-05-21T15:02:53;28.60;86.60
4505;DHT22;2265;48.794;9.520;2023-05-21T15:05:22;28.60;85.90
4505;DHT22;2265;48.794;9.520;2023-05-21T15:07:49;28.70;86.30
4505;DHT22;2265;48.794;9.520;2023-05-21T15:10:16;28.80;86.50
4505;DHT22;2265;48.794;9.520;2023-05-21T15:12:45;29.00;86.60
4505;DHT22;2265;48.794;9.520;2023-05-21T15:15:13;29.10;86.90
4505;DHT22;2265;48.794;9.520;2023-05-21T15:17:41;29.00;83.90
4505;DHT22;2265;48.794;9.520;2023-05-21T15:20:09;28.90;85.40
4505;DHT22;2265;48.794;9.520;2023-05-21T15:22:36;28.70;86.20
4505;DHT22;2265;48.794;9.520;2023-05-21T15:25:04;28.50;86.40
4505;DHT22;2265;48.794;9.520;2023-05-21T15:27:31;28.30;86.60
4505;DHT22;2265;48.794;9.520;2023-05-21T15:30:00;28.20;87.20
4505;DHT22;2265;48.794;9.520;2023-05-21T15:32:27;28.10;87.20
4505;DHT22;2265;48.794;9.520;2023-05-21T15:34:54;27.90;87.30
4505;DHT22;2265;48.794;9.520;2023-05-21T15:37:21;27.80;87.20
4505;DHT22;2265;48.794;9.520;2023-05-21T15:39:48;27.80;87.70
4505;DHT22;2265;48.794;9.520;2023-05-21T15:42:17;27.70;88.40
4505;DHT22;2265;48.794;9.520;2023-05-21T15:44:45;27.70;89.70
4505;DHT22;2265;48.794;9.520;2023-05-21T15:47:14;27.60;89.60
4505;DHT22;2265;48.794;9.520;2023-05-21T15:49:42;27.60;89.60
4505;DHT22;2265;48.794;9.520;2023-05-21T15:52:09;27.50;87.70
4505;DHT22;2265;48.794;9.520;2023-05-21T15:54:36;27.30;87.40
4505;DHT22;2265;48.794;9.520;2023-05-21T15:57:03;27.20;89.40
4505;DHT22;2265;48.794;9.520;2023-05-21T15:59:30;27.10;89.50
4505;DHT22;2265;48.794;9.520;2023-05-21T16:01:57;27.00;90.50
4505;DHT22;2265;48.794;9.520;2023-05-21T16:04:27;26.90;92.40
4505;DHT22;2265;48.794;9.520;2023-05-21T16:06:54;26.80;94.70
4505;DHT22;2265;48.794;9.520;2023-05-21T16:09:30;26.80;94.90
4505;DHT22;2265;48.794;9.520;2023-05-21T16:11:57;26.80;94.60
4505;DHT22;2265;48.794;9.520;2023-05-21T16:14:24;26.80;95.20